Time;durP1;ratioP1;P1;durP2;ratioP2;P2;SDS_P1;SDS_P2;PMS_P1;PMS_P2;Temp;Humidity;BMP_temperature;BMP_pressure;BME280_temperature;BME280_humidity;BME280_pressure;Samples;Min_cycle;Max_cycle;Signal;HPM_P1;HPM_P2
2021/11/06 00:02:09;;;;;;;15.70;11.55;;;;;;;6.94;84.50;100853.31;1705080;82;25496;-64
2021/11/06 00:04:36;;;;;;;19.67;12.28;;;;;;;6.95;84.45;100853.56;1784761;80;25741;-64
2021/11/06 00:07:02;;;;;;;18.82;13.00;;;;;;;6.95;84.44;100861.11;1784816;80;25683;-64
2021/11/06 00:09:29;;;;;;;20.02;12.78;;;;;;;6.96;84.37;100858.67;1781232;80;27901;-64
2021/11/06 00:11:55;;;;;;;17.98;11.50;;;;;;;6.96;84.24;100850.61;1754777;80;25789;-63
2021/11/06 00:14:22;;;;;;;17.87;11.68;;;;;;;6.97;84.27;100850.09;1776374;80;25482;-64
2021/11/06 00:16:49;;;;;;;17.40;11.63;;;;;;;6.96;84.24;100849.81;1776540;80;26163;-64
2021/11/06 00:19:15;;;;;;;19.62;11.85;;;;;;;6.95;84.25;100861.63;1776563;80;25594;-64
2021/11/06 00:21:42;;;;;;;17.20;11.73;;;;;;;6.94;84.12;100860.03;1739112;82;27376;-64
2021/11/06 00:24:09;;;;;;;16.70;11.55;;;;;;;6.92;84.03;100852.23;1739267;82;25297;-64
2021/11/06 00:26:35;;;;;;;16.62;11.50;;;;;;;6.91;84.05;100850.09;1715474;83;25572;-64
2021/11/06 00:29:02;;;;;;;18.48;11.28;;;;;;;6.92;84.09;100842.82;1739011;82;25772;-64
2021/11/06 00:31:28;;;;;;;15.88;11.57;;;;;;;6.90;84.16;100844.98;1715535;83;25645;-64
2021/11/06 00:33:55;;;;;;;18.95;12.18;;;;;;;6.88;84.32;100846.59;1739174;82;27378;-64
2021/11/06 00:36:21;;;;;;;18.30;11.35;;;;;;;6.87;84.21;100853.03;1739050;81;25713;-64
2021/11/06 00:38:47;;;;;;;18.98;11.43;;;;;;;6.87;84.65;100858.41;1709600;83;25659;-64
2021/11/06 00:41:14;;;;;;;15.88;11.28;;;;;;;6.87;84.52;100862.45;1739155;82;25629;-64
2021/11/06 00:43:40;;;;;;;17.42;11.45;;;;;;;6.89;84.67;100868.91;1739039;81;25776;-64
2021/11/06 00:46:07;;;;;;;16.27;11.35;;;;;;;6.90;84.41;100874.02;1709668;83;27390;-64
2021/11/06 00:48:33;;;;;;;18.50;11.70;;;;;;;6.91;84.64;100870.78;1739012;81;25567;-64
2021/11/06 00:51:00;;;;;;;20.48;12.43;;;;;;;6.92;84.51;100871.86;1718253;82;25689;-64
2021/11/06 00:53:27;;;;;;;16.32;11.25;;;;;;;6.92;84.54;100879.92;1709553;83;25811;-64
2021/11/06 00:55:53;;;;;;;16.27;10.75;;;;;;;6.94;84.49;100885.04;1739254;82;25698;-64
2021/11/06 00:58:20;;;;;;;17.70;11.30;;;;;;;6.95;84.47;100879.94;1748956;82;27343;-64
2021/11/06 01:00:47;;;;;;;18.55;12.53;;;;;;;6.96;84.43;100877.50;1722230;83;25633;-64
2021/11/06 01:03:13;;;;;;;14.73;10.90;;;;;;;6.97;84.47;100875.64;1776620;80;25431;-65
2021/11/06 01:05:39;;;;;;;17.40;11.57;;;;;;;6.98;84.37;100877.23;1776345;80;25623;-64
2021/11/06 01:08:07;;;;;;;17.35;11.95;;;;;;;6.98;84.48;100874.02;1754947;80;25761;-64
2021/11/06 01:10:33;;;;;;;21.73;12.20;;;;;;;6.99;84.26;100868.90;1776499;80;27531;-65
2021/11/06 01:13:01;;;;;;;18.10;12.05;;;;;;;7.00;84.30;100877.25;1776365;80;25503;-65
2021/11/06 01:15:31;;;;;;;20.23;13.20;;;;;;;7.01;84.31;100879.39;1776466;80;25559;-64
2021/11/06 01:17:57;;;;;;;;;;;;;;;7.00;84.32;100871.87;1779158;80;25743;-65
2021/11/06 01:20:24;;;;;;;16.35;11.33;;;;;;;7.01;84.29;100880.73;1776490;80;25823;-65
2021/11/06 01:22:51;;;;;;;24.50;13.28;;;;;;;6.98;84.67;100874.02;1776556;80;29490;-65
2021/11/06 01:25:18;;;;;;;22.58;13.35;;;;;;;6.99;84.39;100885.58;1776573;80;25898;-64
2021/11/06 01:27:46;;;;;;;19.57;13.22;;;;;;;7.00;84.30;100888.52;1776403;80;25388;-64
2021/11/06 01:30:13;;;;;;;20.02;14.47;;;;;;;7.00;84.30;100885.31;1776479;80;25686;-65
2021/11/06 01:32:41;;;;;;;21.60;13.70;;;;;;;7.01;84.43;100884.22;1776544;80;25601;-65
2021/11/06 01:35:09;;;;;;;21.30;14.18;;;;;;;7.01;84.49;100896.33;1776523;80;27423;-64
2021/11/06 01:37:36;;;;;;;21.42;14.10;;;;;;;7.00;84.69;100897.42;1754852;80;25500;-64
2021/11/06 01:40:08;;;;;;;17.73;13.10;;;;;;;7.02;84.66;100903.33;1776737;80;25693;-64
2021/11/06 01:42:35;;;;;;;21.45;14.47;;;;;;;7.02;84.71;100912.74;1754883;80;26465;-64
2021/11/06 01:45:02;;;;;;;22.45;15.70;;;;;;;7.03;84.81;100907.64;1776753;80;25633;-64
2021/11/06 01:47:28;;;;;;;20.27;14.30;;;;;;;7.05;84.62;100908.17;1776633;80;27320;-64
2021/11/06 01:49:55;;;;;;;22.05;14.78;;;;;;;7.06;84.83;100909.77;1776486;80;25594;-64
2021/11/06 01:52:22;;;;;;;22.30;14.80;;;;;;;7.07;84.92;100924.05;1776704;80;25640;-64
2021/11/06 01:54:48;;;;;;;23.00;15.43;;;;;;;7.08;84.49;100902.27;1776492;80;25672;-64
2021/11/06 01:57:16;;;;;;;20.90;15.43;;;;;;;7.11;84.69;100902.24;1776519;80;25784;-64
2021/11/06 01:59:44;;;;;;;20.90;14.68;;;;;;;7.13;84.54;100902.77;1776644;80;27325;-64
2021/11/06 02:02:11;;;;;;;23.85;16.48;;;;;;;7.14;84.52;100919.74;1776623;80;25545;-64
2021/11/06 02:04:38;;;;;;;22.45;16.70;;;;;;;7.15;84.56;100915.44;1776528;80;25617;-63
2021/11/06 02:07:04;;;;;;;22.62;16.30;;;;;;;7.16;84.70;100905.48;1776715;80;25628;-64
2021/11/06 02:09:31;;;;;;;24.50;16.37;;;;;;;7.18;84.44;100910.05;1776597;80;25611;-64
2021/11/06 02:11:58;;;;;;;23.00;16.60;;;;;;;7.19;84.71;100906.28;1776630;80;27405;-64
2021/11/06 02:14:25;;;;;;;23.20;15.78;;;;;;;7.20;84.40;100906.02;1776496;80;25392;-63
2021/11/06 02:16:52;;;;;;;21.52;15.63;;;;;;;7.21;84.34;100907.61;1776660;80;25673;-64
2021/11/06 02:19:29;;;;;;;31.12;17.95;;;;;;;7.23;84.49;100909.48;1776556;80;25741;-64
2021/11/06 02:21:59;;;;;;;31.90;17.20;;;;;;;7.25;84.50;100914.08;1776721;80;25612;-64
2021/11/06 02:24:28;;;;;;;22.70;16.97;;;;;;;7.27;84.26;100915.13;1776702;80;27314;-64
2021/11/06 02:26:55;;;;;;;22.90;17.07;;;;;;;7.27;84.35;100928.58;1776573;80;25676;-64
2021/11/06 02:29:22;;;;;;;24.15;17.15;;;;;;;7.29;84.32;100926.45;1776600;80;25634;-64
2021/11/06 02:31:49;;;;;;;23.38;17.00;;;;;;;7.31;84.25;100928.87;1776668;80;25680;-64
2021/11/06 02:34:15;;;;;;;26.25;17.05;;;;;;;7.30;84.36;100928.05;1776563;80;25709;-64
2021/11/06 02:36:43;;;;;;;24.90;18.07;;;;;;;7.30;84.33;100926.70;1776649;80;27405;-64
2021/11/06 02:39:09;;;;;;;29.37;18.42;;;;;;;7.31;84.54;100928.87;1776583;80;25693;-64
2021/11/06 02:41:36;;;;;;;25.30;17.42;;;;;;;7.32;84.36;100922.40;1776467;80;25728;-64
2021/11/06 02:44:11;;;;;;;28.90;18.62;;;;;;;7.33;84.44;100924.82;1776626;80;25683;-64
2021/11/06 02:46:40;;;;;;;24.20;17.98;;;;;;;7.35;84.50;100913.23;1776605;80;25651;-65
2021/11/06 02:49:09;;;;;;;26.75;18.57;;;;;;;7.36;84.71;100919.45;1776550;80;27989;-65
2021/11/06 02:51:36;;;;;;;25.57;18.95;;;;;;;7.34;84.41;100919.72;1776555;80;35170;-64
2021/11/06 02:54:03;;;;;;;24.40;18.12;;;;;;;7.36;84.26;100916.76;1776670;80;25720;-65
2021/11/06 02:56:29;;;;;;;29.48;18.55;;;;;;;7.34;84.45;100923.75;1776464;80;26229;-65
2021/11/06 02:58:57;;;;;;;26.33;18.62;;;;;;;7.36;84.29;100922.14;1784735;80;25601;-65
2021/11/06 03:01:27;;;;;;;23.15;17.65;;;;;;;7.37;84.39;100919.18;1777656;80;27318;-65
2021/11/06 03:03:54;;;;;;;25.90;18.42;;;;;;;7.38;84.36;100922.13;1776526;80;25638;-64
2021/11/06 03:06:21;;;;;;;29.82;19.32;;;;;;;7.38;84.45;100919.43;1776666;80;25805;-65
2021/11/06 03:08:48;;;;;;;26.42;18.98;;;;;;;7.38;84.62;100916.73;1776520;80;27773;-65
2021/11/06 03:11:14;;;;;;;24.98;19.02;;;;;;;7.39;84.62;100917.53;1776530;80;25616;-65
2021/11/06 03:13:43;;;;;;;26.37;19.07;;;;;;;7.40;84.82;100913.78;1776571;80;28023;-65
2021/11/06 03:16:11;;;;;;;30.80;20.23;;;;;;;7.41;84.58;100923.48;1776643;80;25460;-65
2021/11/06 03:18:37;;;;;;;31.93;19.80;;;;;;;7.43;84.73;100923.45;1776368;80;25681;-65
2021/11/06 03:21:04;;;;;;;27.62;19.37;;;;;;;7.43;84.72;100916.73;1776672;80;25689;-65
2021/11/06 03:23:31;;;;;;;25.90;19.07;;;;;;;7.44;84.98;100922.39;1776593;80;25555;-65
2021/11/06 03:25:58;;;;;;;30.80;20.82;;;;;;;7.46;84.68;100922.13;1776544;80;27416;-65
2021/11/06 03:28:25;;;;;;;28.10;20.32;;;;;;;7.46;84.78;100928.84;1776394;80;25611;-64
2021/11/06 03:30:52;;;;;;;26.02;19.67;;;;;;;7.48;84.64;100924.00;1776616;80;25547;-64
2021/11/06 03:33:20;;;;;;;27.77;19.62;;;;;;;7.47;84.74;100925.89;1776542;80;25558;-65
2021/11/06 03:35:46;;;;;;;29.30;20.60;;;;;;;7.51;84.69;100930.70;1776617;80;25576;-65
2021/11/06 03:38:12;;;;;;;28.95;20.77;;;;;;;7.51;84.64;100934.22;1776560;80;29493;-65
2021/11/06 03:40:39;;;;;;;28.45;20.57;;;;;;;7.53;84.66;100941.48;1776324;80;25751;-64
2021/11/06 03:43:05;;;;;;;29.72;20.20;;;;;;;7.55;84.56;100941.21;1776644;80;25407;-65
2021/11/06 03:45:32;;;;;;;28.80;19.57;;;;;;;7.55;84.62;100939.86;1776474;80;25671;-65
2021/11/06 03:47:58;;;;;;;27.45;19.55;;;;;;;7.55;84.63;100930.44;1776456;80;25550;-65
2021/11/06 03:50:25;;;;;;;29.05;19.95;;;;;;;7.55;84.60;100941.21;1776585;80;27526;-65
2021/11/06 03:52:51;;;;;;;28.52;20.15;;;;;;;7.56;84.72;100937.42;1776491;80;25659;-65
2021/11/06 03:55:18;;;;;;;25.72;19.30;;;;;;;7.54;84.58;100932.31;1754721;80;25594;-65
2021/11/06 03:57:44;;;;;;;27.52;20.43;;;;;;;7.53;84.54;100937.44;1775420;80;25769;-64
2021/11/06 04:00:15;;;;;;;25.70;19.20;;;;;;;7.54;84.44;100939.59;1775795;80;25673;-65
2021/11/06 04:02:44;;;;;;;23.67;17.85;;;;;;;7.54;84.32;100932.31;1776460;80;27249;-65
2021/11/06 04:05:11;;;;;;;29.63;19.43;;;;;;;7.53;84.56;100932.06;1776799;80;25443;-65
2021/11/06 04:07:37;;;;;;;26.45;19.20;;;;;;;7.53;84.28;100932.61;1776478;80;25676;-64
2021/11/06 04:10:06;;;;;;;25.27;17.85;;;;;;;7.52;84.26;100930.98;1776396;80;27707;-65
2021/11/06 04:12:32;;;;;;;23.42;18.15;;;;;;;7.51;84.37;100930.70;1776566;80;25641;-65
2021/11/06 04:15:05;;;;;;;28.40;18.62;;;;;;;7.51;84.30;100932.05;1776585;80;27358;-65
2021/11/06 04:17:31;;;;;;;25.90;17.92;;;;;;;7.50;84.37;100930.45;1776324;80;25569;-65
2021/11/06 04:19:57;;;;;;;21.57;16.85;;;;;;;7.50;84.06;100927.77;1776634;80;25408;-65
2021/11/06 04:22:24;;;;;;;23.38;17.32;;;;;;;7.50;84.07;100921.83;1776496;80;25624;-65
2021/11/06 04:24:51;;;;;;;25.10;18.37;;;;;;;7.50;84.00;100923.73;1776423;80;26172;-64
2021/11/06 04:27:17;;;;;;;23.67;16.52;;;;;;;7.50;83.91;100930.45;1776452;80;27309;-64
2021/11/06 04:29:43;;;;;;;20.05;15.95;;;;;;;7.50;83.83;100928.56;1776485;80;25674;-64
2021/11/06 04:32:10;;;;;;;21.15;16.70;;;;;;;7.49;83.75;100932.31;1776410;80;25648;-64
2021/11/06 04:34:37;;;;;;;19.65;15.98;;;;;;;7.49;83.65;100926.94;1776591;80;25615;-64
2021/11/06 04:37:05;;;;;;;22.05;16.30;;;;;;;7.47;83.62;100923.20;1776528;80;26206;-64
2021/11/06 04:39:32;;;;;;;20.25;14.85;;;;;;;7.47;83.43;100927.23;1776500;80;27334;-64
2021/11/06 04:41:59;;;;;;;23.85;16.60;;;;;;;7.47;83.37;100931.79;1776439;80;25674;-64
2021/11/06 04:44:26;;;;;;;19.95;15.55;;;;;;;7.47;83.25;100938.52;1776605;80;25452;-64
2021/11/06 04:46:52;;;;;;;18.30;14.47;;;;;;;7.47;83.14;100945.25;1776376;80;26020;-64
2021/11/06 04:49:19;;;;;;;20.57;14.90;;;;;;;7.48;83.11;100962.48;1776526;80;25511;-64
2021/11/06 04:51:45;;;;;;;19.70;15.58;;;;;;;7.49;82.91;100949.81;1776594;80;27424;-64
2021/11/06 04:54:12;;;;;;;21.35;15.55;;;;;;;7.48;82.91;100960.34;1776298;80;25886;-64
2021/11/06 04:56:38;;;;;;;22.32;15.60;;;;;;;7.49;82.72;100940.39;1776590;80;25747;-64
2021/11/06 04:59:05;;;;;;;16.93;14.80;;;;;;;7.48;82.72;100940.14;1774608;80;26301;-64
2021/11/06 05:01:31;;;;;;;20.68;14.85;;;;;;;7.48;82.60;100926.69;1776434;80;25605;-64
2021/11/06 05:03:57;;;;;;;19.02;14.50;;;;;;;7.47;82.56;100931.79;1776506;80;27315;-64
2021/11/06 05:06:26;;;;;;;18.80;14.40;;;;;;;7.47;82.54;100936.66;1776458;80;25411;-64
2021/11/06 05:08:52;;;;;;;16.93;14.30;;;;;;;7.47;82.38;100939.86;1776404;80;25632;-64
2021/11/06 05:11:19;;;;;;;16.42;13.68;;;;;;;7.46;82.34;100933.69;1776613;80;25722;-64
2021/11/06 05:13:45;;;;;;;18.10;14.35;;;;;;;7.47;82.32;100943.39;1776759;80;25601;-64
2021/11/06 05:16:11;;;;;;;18.15;13.75;;;;;;;7.45;82.09;100937.99;1776495;80;27313;-64
2021/11/06 05:18:38;;;;;;;18.37;15.05;;;;;;;7.44;82.14;100946.62;1776657;80;25542;-64
2021/11/06 05:21:04;;;;;;;16.70;14.15;;;;;;;7.44;82.10;100943.09;1776724;80;25760;-64
2021/11/06 05:23:31;;;;;;;18.50;14.80;;;;;;;7.43;82.05;100946.88;1776507;80;27873;-64
2021/11/06 05:25:58;;;;;;;17.67;14.23;;;;;;;7.41;81.94;100946.36;1776737;80;25682;-64
2021/11/06 05:28:25;;;;;;;19.27;14.15;;;;;;;7.39;81.98;100948.48;1776600;80;27304;-64
2021/11/06 05:30:51;;;;;;;22.37;14.43;;;;;;;7.37;81.97;100950.65;1776506;80;25389;-64
2021/11/06 05:33:18;;;;;;;22.10;14.50;;;;;;;7.36;82.00;100974.07;1776648;80;25586;-64
2021/11/06 05:35:44;;;;;;;15.45;12.85;;;;;;;7.35;81.95;100957.64;1776656;80;27847;-64
2021/11/06 05:38:11;;;;;;;16.48;13.75;;;;;;;7.34;81.89;100961.44;1776556;80;25662;-64
2021/11/06 05:40:37;;;;;;;17.40;13.08;;;;;;;7.33;81.86;100965.19;1776695;80;27308;-64
2021/11/06 05:43:04;;;;;;;18.30;13.48;;;;;;;7.32;81.75;100982.44;1776553;80;25550;-64
2021/11/06 05:45:30;;;;;;;16.87;13.55;;;;;;;7.33;81.82;100965.73;1739357;82;25769;-64
2021/11/06 05:47:57;;;;;;;17.73;13.60;;;;;;;7.34;81.78;100968.67;1715516;83;25695;-64
2021/11/06 05:50:24;;;;;;;17.27;13.30;;;;;;;7.35;81.79;100973.00;1739251;82;25634;-64
2021/11/06 05:52:51;;;;;;;20.92;14.43;;;;;;;7.35;81.78;100971.10;1738955;82;29448;-65
2021/11/06 05:55:17;;;;;;;16.23;12.70;;;;;;;7.36;81.68;100975.42;1709555;83;25861;-64
2021/11/06 05:57:45;;;;;;;19.67;13.28;;;;;;;7.38;81.67;100979.19;1740550;82;25663;-64
2021/11/06 06:00:16;;;;;;;18.67;12.40;;;;;;;7.40;81.61;100983.75;1750826;81;25694;-64
2021/11/06 06:02:43;;;;;;;16.73;12.63;;;;;;;7.41;81.54;100984.03;1776766;80;25658;-64
2021/11/06 06:05:11;;;;;;;15.30;12.23;;;;;;;7.41;81.42;100979.45;1776623;80;27896;-64
2021/11/06 06:07:38;;;;;;;16.23;13.05;;;;;;;7.43;81.46;101001.52;1776460;80;25681;-64
2021/11/06 06:10:09;;;;;;;16.85;13.15;;;;;;;7.45;81.32;100973.78;1776649;80;25596;-64
2021/11/06 06:12:36;;;;;;;19.32;13.30;;;;;;;7.45;81.08;100993.97;1776656;80;26262;-64
2021/11/06 06:15:05;;;;;;;18.10;13.50;;;;;;;7.48;81.10;100992.64;1776553;80;25618;-64
2021/11/06 06:17:31;;;;;;;15.40;12.25;;;;;;;7.47;81.13;100999.91;1776732;80;28029;-64
2021/11/06 06:19:58;;;;;;;16.23;12.63;;;;;;;7.50;81.17;100997.20;1776523;80;25759;-64
2021/11/06 06:22:24;;;;;;;17.48;13.10;;;;;;;7.53;81.18;101010.67;1776554;80;25626;-64
2021/11/06 06:24:51;;;;;;;18.67;13.18;;;;;;;7.55;81.15;101008.52;1776619;80;27773;-64
2021/11/06 06:27:19;;;;;;;15.08;11.88;;;;;;;7.57;81.09;101015.78;1776603;80;25406;-64
2021/11/06 06:29:45;;;;;;;16.65;13.30;;;;;;;7.58;81.11;101013.36;1776598;80;27347;-64
2021/11/06 06:32:12;;;;;;;18.85;12.95;;;;;;;7.59;81.01;100994.22;1776460;80;25630;-64
2021/11/06 06:34:39;;;;;;;16.52;13.03;;;;;;;7.59;81.05;101001.50;1776662;80;25685;-64
2021/11/06 06:37:05;;;;;;;18.75;13.43;;;;;;;7.61;81.10;101005.55;1754827;80;25671;-64
2021/11/06 06:39:32;;;;;;;15.43;12.90;;;;;;;7.62;81.03;101003.66;1776507;80;25674;-64
2021/11/06 06:41:58;;;;;;;15.85;12.90;;;;;;;7.63;81.08;101011.47;1776702;80;27339;-64
2021/11/06 06:44:25;;;;;;;15.18;12.30;;;;;;;7.69;81.13;101003.37;1776563;80;25755;-64
2021/11/06 06:46:51;;;;;;;16.55;11.70;;;;;;;7.71;81.01;100998.52;1776527;80;25699;-64
2021/11/06 06:49:17;;;;;;;17.92;12.33;;;;;;;7.77;81.00;101004.17;1776497;80;26285;-64
2021/11/06 06:51:44;;;;;;;16.25;11.97;;;;;;;7.83;81.06;101012.49;1776717;80;25486;-64
2021/11/06 06:54:10;;;;;;;13.83;11.60;;;;;;;7.88;80.97;101007.64;1776476;80;27444;-65
2021/11/06 06:56:37;;;;;;;18.40;12.98;;;;;;;7.89;80.69;101010.07;1776527;80;25660;-65
2021/11/06 06:59:04;;;;;;;14.53;11.38;;;;;;;7.90;80.65;101018.42;1776452;80;25628;-65
2021/11/06 07:01:32;;;;;;;14.18;12.05;;;;;;;7.91;80.58;101024.06;1776447;80;25599;-65
2021/11/06 07:03:58;;;;;;;15.20;11.68;;;;;;;7.91;80.53;101018.67;1776657;80;25805;-65
2021/11/06 07:06:24;;;;;;;14.93;11.45;;;;;;;7.92;80.50;101024.89;1776538;80;27331;-65
2021/11/06 07:08:51;;;;;;;14.58;11.85;;;;;;;7.91;80.50;101024.06;1776365;80;25633;-65
2021/11/06 07:11:18;;;;;;;15.00;11.48;;;;;;;7.94;80.67;101024.08;1776525;80;25452;-65
2021/11/06 07:13:46;;;;;;;15.05;10.82;;;;;;;7.96;80.68;101027.30;1776597;80;27750;-65
2021/11/06 07:16:12;;;;;;;15.93;11.95;;;;;;;7.99;80.61;101022.71;1776400;80;25696;-65
2021/11/06 07:18:40;;;;;;;14.63;11.05;;;;;;;8.01;80.42;101025.38;1776614;80;29403;-65
2021/11/06 07:21:08;;;;;;;13.95;11.83;;;;;;;8.02;80.37;101027.56;1755036;80;25786;-66
2021/11/06 07:23:35;;;;;;;13.72;11.50;;;;;;;8.03;80.27;101034.00;1776534;80;25581;-66
2021/11/06 07:26:03;;;;;;;14.60;11.35;;;;;;;8.07;80.36;101032.94;1776555;80;26194;-65
2021/11/06 07:28:31;;;;;;;13.65;10.90;;;;;;;8.15;80.47;101031.55;1776567;80;25677;-65
2021/11/06 07:30:59;;;;;;;16.25;10.38;;;;;;;8.21;80.56;101032.61;1776379;80;27896;-64
2021/11/06 07:33:26;;;;;;;13.10;10.55;;;;;;;8.32;80.51;101033.37;1776457;80;25625;-64
2021/11/06 07:35:54;;;;;;;14.98;10.70;;;;;;;8.41;80.04;101037.13;1776589;80;25605;-64
2021/11/06 07:38:21;;;;;;;12.82;10.35;;;;;;;8.45;79.64;101029.31;1776329;80;25669;-64
2021/11/06 07:40:47;;;;;;;13.08;9.68;;;;;;;8.51;79.46;101032.78;1776610;80;25574;-65
2021/11/06 07:43:14;;;;;;;14.63;10.53;;;;;;;8.53;79.42;101042.23;1776561;80;27958;-64
2021/11/06 07:45:41;;;;;;;12.53;9.48;;;;;;;8.59;79.74;101046.49;1776378;80;27124;-65
2021/11/06 07:48:10;;;;;;;11.35;9.45;;;;;;;8.60;79.06;101045.97;1754770;80;25560;-64
2021/11/06 07:50:37;;;;;;;14.30;9.20;;;;;;;8.62;79.15;101053.79;1776726;80;26174;-64
2021/11/06 07:53:04;;;;;;;13.72;9.70;;;;;;;8.63;79.16;101050.79;1776465;80;25627;-64
2021/11/06 07:55:31;;;;;;;14.00;10.18;;;;;;;8.67;79.15;101051.07;1776532;80;27380;-64
2021/11/06 07:57:57;;;;;;;12.18;9.00;;;;;;;8.67;78.69;101045.12;1776436;80;25696;-64
2021/11/06 08:00:24;;;;;;;14.78;9.93;;;;;;;8.67;78.39;101051.07;1776412;80;25621;-65
2021/11/06 08:02:51;;;;;;;11.50;8.73;;;;;;;8.68;78.76;101045.37;1770280;80;26227;-64
2021/11/06 08:05:18;;;;;;;12.20;8.88;;;;;;;8.72;78.93;101041.05;1767934;80;25715;-64
2021/11/06 08:07:45;;;;;;;10.63;8.63;;;;;;;8.80;78.59;101051.78;1764542;80;27336;-64
2021/11/06 08:10:12;;;;;;;12.80;8.65;;;;;;;8.85;78.13;101050.95;1769192;79;25651;-64
2021/11/06 08:12:41;;;;;;;12.82;8.95;;;;;;;8.89;78.27;101052.03;1750255;81;25711;-64
2021/11/06 08:15:12;;;;;;;11.38;9.03;;;;;;;8.93;77.82;101057.13;1766157;80;25706;-64
2021/11/06 08:17:40;;;;;;;15.32;9.03;;;;;;;8.91;76.97;101056.05;1759374;80;25775;-64
2021/11/06 08:20:08;;;;;;;12.05;8.20;;;;;;;8.92;77.47;101054.98;1761010;80;27353;-63
2021/11/06 08:22:36;;;;;;;10.48;7.97;;;;;;;8.97;76.52;101055.47;1743704;80;25653;-63
2021/11/06 08:25:06;;;;;;;11.40;8.33;;;;;;;9.02;77.10;101058.69;1721333;81;25393;-64
2021/11/06 08:27:34;;;;;;;13.00;8.18;;;;;;;9.13;76.82;101065.09;1702949;83;34923;-64
2021/11/06 08:30:01;;;;;;;11.95;7.53;;;;;;;9.17;76.81;101068.03;1752784;80;25570;-64
2021/11/06 08:32:27;;;;;;;13.28;7.97;;;;;;;9.27;76.59;101064.46;1745813;82;28113;-67
2021/11/06 08:34:54;;;;;;;12.85;8.10;;;;;;;9.36;76.79;101065.46;1745581;82;25760;-67
2021/11/06 08:37:20;;;;;;;15.15;9.30;;;;;;;9.41;76.62;101073.52;1745642;82;25640;-67
2021/11/06 08:39:47;;;;;;;12.43;8.90;;;;;;;9.33;76.17;101065.49;1745726;82;25558;-67
2021/11/06 08:42:13;;;;;;;18.65;10.63;;;;;;;9.33;76.17;101071.42;1745729;82;25605;-67
2021/11/06 08:44:40;;;;;;;12.90;8.93;;;;;;;9.37;76.89;101075.73;1745588;82;27400;-66
2021/11/06 08:47:06;;;;;;;14.45;9.28;;;;;;;9.46;76.90;101083.48;1750076;81;25685;-68
2021/11/06 08:49:33;;;;;;;12.95;8.18;;;;;;;9.46;76.24;101081.58;1773048;80;25479;-68
2021/11/06 08:51:59;;;;;;;10.98;7.80;;;;;;;9.42;76.08;101082.45;1756612;80;25686;-68
2021/11/06 08:54:26;;;;;;;11.43;8.38;;;;;;;9.38;75.86;101080.86;1760478;80;25469;-69
2021/11/06 08:56:54;;;;;;;14.45;9.13;;;;;;;9.31;75.70;101081.70;1766376;80;27306;-69
2021/11/06 08:59:21;;;;;;;14.18;9.40;;;;;;;9.23;75.57;101079.59;1767164;80;25650;-68
2021/11/06 09:01:55;;;;;;;13.20;9.43;;;;;;;9.11;75.78;101089.41;1781020;80;25637;-68
2021/11/06 09:04:24;;;;;;;15.18;8.33;;;;;;;9.04;76.24;101079.44;1774039;80;25750;-68
2021/11/06 09:06:51;;;;;;;16.52;9.55;;;;;;;9.02;76.39;101087.81;1767296;80;25456;-68
2021/11/06 09:09:17;;;;;;;16.37;9.55;;;;;;;8.96;76.32;101101.09;1760542;80;27364;-67
2021/11/06 09:11:47;;;;;;;16.20;9.73;;;;;;;8.90;76.49;101086.00;1756746;80;27090;-68
2021/11/06 09:14:14;;;;;;;;;;;;;;;8.87;76.89;101094.13;1773113;80;25644;-66
2021/11/06 09:16:42;;;;;;;12.65;9.35;;;;;;;8.89;77.32;101085.76;1772168;80;26293;-68
2021/11/06 09:19:09;;;;;;;13.38;8.83;;;;;;;8.91;77.55;101083.03;1770893;80;25759;-68
2021/11/06 09:21:35;;;;;;;16.42;10.58;;;;;;;8.94;77.62;101084.37;1767570;81;27317;-68
2021/11/06 09:24:03;;;;;;;17.32;10.13;;;;;;;8.94;77.31;101086.53;1767503;80;25677;-68
2021/11/06 09:26:33;;;;;;;16.87;9.83;;;;;;;8.90;77.34;101088.15;1767614;81;25696;-67
2021/11/06 09:29:00;;;;;;;13.85;10.82;;;;;;;8.83;77.22;101089.55;1767532;81;26277;-67
2021/11/06 09:31:28;;;;;;;17.85;11.38;;;;;;;8.82;77.64;101091.97;1767782;80;25681;-67
2021/11/06 09:33:54;;;;;;;15.72;11.28;;;;;;;8.81;77.66;101089.83;1767481;81;27062;-67
2021/11/06 09:36:21;;;;;;;16.02;11.08;;;;;;;8.77;77.58;101088.23;1767248;81;27108;-67
2021/11/06 09:38:48;;;;;;;15.65;10.82;;;;;;;8.74;77.82;101085.28;1767656;81;25687;-67
2021/11/06 09:41:16;;;;;;;16.15;11.18;;;;;;;8.70;77.89;101090.95;1767559;81;25741;-67
2021/11/06 09:43:42;;;;;;;16.77;11.60;;;;;;;8.68;77.92;101088.52;1767590;81;25640;-67
2021/11/06 09:46:10;;;;;;;18.73;12.13;;;;;;;8.68;78.09;101092.57;1767667;81;27396;-67
2021/11/06 09:48:40;;;;;;;16.42;11.50;;;;;;;8.68;78.18;101089.88;1767504;81;25702;-67
2021/11/06 09:51:07;;;;;;;20.37;13.90;;;;;;;8.67;78.46;101084.78;1767613;81;25761;-67
2021/11/06 09:53:40;;;;;;;16.12;11.63;;;;;;;8.66;78.34;101076.41;1767617;81;25726;-67
2021/11/06 09:56:08;;;;;;;18.73;12.47;;;;;;;8.65;78.53;101085.05;1767544;81;26254;-66
2021/11/06 09:58:35;;;;;;;16.93;12.50;;;;;;;8.65;78.52;101082.88;1768049;81;27367;-66
2021/11/06 10:01:04;;;;;;;17.17;13.35;;;;;;;8.63;78.64;101081.80;1775565;80;26018;-67
2021/11/06 10:03:31;;;;;;;16.62;12.68;;;;;;;8.59;78.61;101076.71;1776055;80;25763;-67
2021/11/06 10:06:04;;;;;;;18.25;12.73;;;;;;;8.56;78.87;101077.25;1770930;80;26366;-68
2021/11/06 10:08:38;;;;;;;20.60;12.82;;;;;;;8.54;78.86;101084.82;1769380;80;25761;-67
2021/11/06 10:11:09;;;;;;;19.20;12.63;;;;;;;8.56;79.00;101088.05;1766155;80;27237;-68
2021/11/06 10:14:10;;;;;;;20.37;14.47;;;;;;;8.56;78.99;101075.39;1791679;80;25684;-67
2021/11/06 10:16:51;;;;;;;15.10;12.03;;;;;;;8.56;78.88;101083.48;1791840;80;25688;-68
2021/11/06 10:19:40;;;;;;;19.15;13.38;;;;;;;8.53;79.02;101079.98;1790403;80;27723;-68
2021/11/06 10:22:10;;;;;;;19.77;13.03;;;;;;;8.52;79.05;101091.04;1790623;80;25586;-67
2021/11/06 10:24:47;;;;;;;23.18;14.85;;;;;;;8.49;78.98;101084.29;1791807;80;27377;-68
2021/11/06 10:27:22;;;;;;;18.17;12.75;;;;;;;8.51;79.04;101081.32;1791507;80;25685;-68
2021/11/06 10:30:16;;;;;;;19.48;12.63;;;;;;;8.51;79.11;101084.02;1789367;80;25595;-66
2021/11/06 10:33:04;;;;;;;16.32;10.80;;;;;;;8.50;78.99;101102.09;1791731;79;25728;-68
2021/11/06 10:35:41;;;;;;;16.75;11.97;;;;;;;8.49;78.63;101086.98;1792102;80;25863;-68
2021/11/06 10:38:21;;;;;;;15.30;10.93;;;;;;;8.53;78.76;101062.45;1791580;80;27440;-68
2021/11/06 10:40:55;;;;;;;17.05;12.05;;;;;;;8.56;78.54;101084.83;1791705;80;25783;-67
2021/11/06 10:43:24;;;;;;;17.07;11.78;;;;;;;8.57;78.41;101087.77;1794133;79;25709;-67
2021/11/06 10:45:54;;;;;;;;;;;;;;;8.61;78.46;101079.93;1797630;79;25677;-68
2021/11/06 10:48:23;;;;;;;;;;;;;;;8.62;78.29;101074.81;1759694;81;25649;-68
2021/11/06 10:51:06;;;;;;;13.50;10.78;;;;;;;8.66;78.50;101085.85;1742219;81;27970;-68
2021/11/06 10:53:38;;;;;;;19.57;12.00;;;;;;;8.66;78.16;101083.16;1720878;83;25628;-68
2021/11/06 10:56:32;;;;;;;14.85;11.83;;;;;;;8.69;78.47;101090.70;1736912;82;25629;-66
2021/11/06 10:59:07;;;;;;;18.60;12.18;;;;;;;8.73;79.07;101088.50;1736860;82;25756;-66
2021/11/06 11:01:40;;;;;;;17.87;13.18;;;;;;;8.71;78.72;101084.48;1736960;82;25579;-66
2021/11/06 11:04:15;;;;;;;17.98;12.98;;;;;;;8.67;78.46;101080.19;1717569;83;27329;-68
2021/11/06 11:06:46;;;;;;;19.40;12.95;;;;;;;8.63;78.74;101090.45;1735863;82;25653;-68
2021/11/06 11:09:18;;;;;;;21.57;13.70;;;;;;;8.58;78.50;101084.52;1720754;83;25711;-68
2021/11/06 11:11:47;;;;;;;18.35;12.35;;;;;;;8.55;78.63;101084.55;1736708;82;25740;-67
2021/11/06 11:14:26;;;;;;;18.50;12.60;;;;;;;8.57;78.70;101075.63;1720915;83;25659;-67
2021/11/06 11:17:00;;;;;;;19.45;13.38;;;;;;;8.55;78.51;101069.72;1736852;81;27321;-68
2021/11/06 11:19:43;;;;;;;20.00;13.15;;;;;;;8.53;78.89;101069.71;1707261;83;25498;-68
2021/11/06 11:22:32;;;;;;;19.17;13.70;;;;;;;8.52;79.18;101082.40;1736758;82;25714;-67
2021/11/06 11:24:57;;;;;;;24.37;13.93;;;;;;;8.51;79.17;101073.23;1736841;82;26253;-67